sensor_id;sensor_type;location;lat;lon;timestamp;P1;durP1;ratioP1;P2;durP2;ratioP2
77016;SDS011;65949;53.132;17.930;2024-01-30T00:00:43;87.40;;;35.50;;
77016;SDS011;65949;53.132;17.930;2024-01-30T00:03:29;101.50;;;36.90;;
77016;SDS011;65949;53.132;17.930;2024-01-30T00:05:56;97.10;;;37.10;;
77016;SDS011;65949;53.132;17.930;2024-01-30T00:08:23;85.00;;;34.60;;
77016;SDS011;65949;53.132;17.930;2024-01-30T00:10:49;92.00;;;36.10;;
77016;SDS011;65949;53.132;17.930;2024-01-30T00:13:16;92.10;;;37.40;;
77016;SDS011;65949;53.132;17.930;2024-01-30T00:15:44;84.10;;;34.60;;
77016;SDS011;65949;53.132;17.930;2024-01-30T00:18:11;96.80;;;36.30;;
77016;SDS011;65949;53.132;17.930;2024-01-30T00:20:38;111.90;;;42.80;;
77016;SDS011;65949;53.132;17.930;2024-01-30T00:23:05;121.80;;;44.40;;
77016;SDS011;65949;53.132;17.930;2024-01-30T00:25:31;125.00;;;45.00;;
77016;SDS011;65949;53.132;17.930;2024-01-30T00:27:59;112.00;;;41.00;;
77016;SDS011;65949;53.132;17.930;2024-01-30T00:30:26;121.10;;;43.90;;
77016;SDS011;65949;53.132;17.930;2024-01-30T00:32:53;115.60;;;43.80;;
77016;SDS011;65949;53.132;17.930;2024-01-30T00:35:20;139.10;;;50.40;;
77016;SDS011;65949;53.132;17.930;2024-01-30T00:37:48;141.40;;;50.80;;
77016;SDS011;65949;53.132;17.930;2024-01-30T00:40:15;132.60;;;48.50;;
77016;SDS011;65949;53.132;17.930;2024-01-30T00:42:42;111.20;;;42.30;;
77016;SDS011;65949;53.132;17.930;2024-01-30T00:45:13;116.20;;;41.80;;
77016;SDS011;65949;53.132;17.930;2024-01-30T00:47:41;107.20;;;41.00;;
77016;SDS011;65949;53.132;17.930;2024-01-30T00:50:09;126.30;;;46.20;;
77016;SDS011;65949;53.132;17.930;2024-01-30T00:52:36;124.60;;;47.70;;
77016;SDS011;65949;53.132;17.930;2024-01-30T00:55:02;111.10;;;40.80;;
77016;SDS011;65949;53.132;17.930;2024-01-30T00:57:29;110.00;;;41.70;;
77016;SDS011;65949;53.132;17.930;2024-01-30T00:59:56;122.00;;;44.20;;
77016;SDS011;65949;53.132;17.930;2024-01-30T01:02:23;115.00;;;41.20;;
77016;SDS011;65949;53.132;17.930;2024-01-30T01:04:50;105.60;;;42.50;;
77016;SDS011;65949;53.132;17.930;2024-01-30T01:07:16;100.20;;;39.80;;
77016;SDS011;65949;53.132;17.930;2024-01-30T01:09:43;109.30;;;40.60;;
77016;SDS011;65949;53.132;17.930;2024-01-30T01:12:09;114.40;;;41.30;;
77016;SDS011;65949;53.132;17.930;2024-01-30T01:14:36;109.60;;;41.40;;
77016;SDS011;65949;53.132;17.930;2024-01-30T01:17:03;96.70;;;39.00;;
77016;SDS011;65949;53.132;17.930;2024-01-30T01:19:29;108.90;;;41.80;;
77016;SDS011;65949;53.132;17.930;2024-01-30T01:21:56;110.40;;;41.60;;
77016;SDS011;65949;53.132;17.930;2024-01-30T01:24:23;96.90;;;37.90;;
77016;SDS011;65949;53.132;17.930;2024-01-30T01:26:50;104.70;;;40.40;;
77016;SDS011;65949;53.132;17.930;2024-01-30T01:29:17;100.60;;;38.30;;
77016;SDS011;65949;53.132;17.930;2024-01-30T01:31:44;98.00;;;36.90;;
77016;SDS011;65949;53.132;17.930;2024-01-30T01:34:11;96.80;;;35.40;;
77016;SDS011;65949;53.132;17.930;2024-01-30T01:36:38;101.50;;;36.00;;
77016;SDS011;65949;53.132;17.930;2024-01-30T01:39:05;94.30;;;36.40;;
77016;SDS011;65949;53.132;17.930;2024-01-30T01:41:32;90.90;;;33.70;;
77016;SDS011;65949;53.132;17.930;2024-01-30T01:43:59;82.40;;;30.80;;
77016;SDS011;65949;53.132;17.930;2024-01-30T01:46:26;77.60;;;31.10;;
77016;SDS011;65949;53.132;17.930;2024-01-30T01:48:55;80.10;;;31.60;;
77016;SDS011;65949;53.132;17.930;2024-01-30T01:51:23;80.90;;;33.10;;
77016;SDS011;65949;53.132;17.930;2024-01-30T01:53:53;77.40;;;30.60;;
77016;SDS011;65949;53.132;17.930;2024-01-30T01:56:21;72.00;;;28.60;;
77016;SDS011;65949;53.132;17.930;2024-01-30T01:58:50;74.40;;;28.60;;
77016;SDS011;65949;53.132;17.930;2024-01-30T02:01:20;71.90;;;27.80;;
77016;SDS011;65949;53.132;17.930;2024-01-30T02:03:49;71.60;;;27.90;;
77016;SDS011;65949;53.132;17.930;2024-01-30T02:06:16;75.50;;;28.80;;
77016;SDS011;65949;53.132;17.930;2024-01-30T02:08:43;71.50;;;27.80;;
77016;SDS011;65949;53.132;17.930;2024-01-30T02:11:10;67.70;;;28.20;;
77016;SDS011;65949;53.132;17.930;2024-01-30T02:13:37;66.40;;;26.60;;
77016;SDS011;65949;53.132;17.930;2024-01-30T02:16:04;75.90;;;31.10;;
77016;SDS011;65949;53.132;17.930;2024-01-30T02:18:31;77.30;;;32.80;;
77016;SDS011;65949;53.132;17.930;2024-01-30T02:20:58;84.60;;;34.10;;
77016;SDS011;65949;53.132;17.930;2024-01-30T02:23:28;87.40;;;36.10;;
77016;SDS011;65949;53.132;17.930;2024-01-30T02:25:54;86.60;;;34.60;;
77016;SDS011;65949;53.132;17.930;2024-01-30T02:28:21;76.70;;;31.00;;
77016;SDS011;65949;53.132;17.930;2024-01-30T02:30:48;74.50;;;30.30;;
77016;SDS011;65949;53.132;17.930;2024-01-30T02:33:14;69.40;;;28.80;;
77016;SDS011;65949;53.132;17.930;2024-01-30T02:35:41;69.70;;;28.60;;
77016;SDS011;65949;53.132;17.930;2024-01-30T02:38:08;65.60;;;26.80;;
77016;SDS011;65949;53.132;17.930;2024-01-30T02:40:34;69.60;;;27.20;;
77016;SDS011;65949;53.132;17.930;2024-01-30T02:43:01;85.70;;;32.60;;
77016;SDS011;65949;53.132;17.930;2024-01-30T02:45:29;89.20;;;34.60;;
77016;SDS011;65949;53.132;17.930;2024-01-30T02:47:55;94.20;;;36.60;;
77016;SDS011;65949;53.132;17.930;2024-01-30T02:50:22;90.00;;;34.20;;
77016;SDS011;65949;53.132;17.930;2024-01-30T02:52:49;87.90;;;36.40;;
77016;SDS011;65949;53.132;17.930;2024-01-30T02:55:16;97.50;;;38.60;;
77016;SDS011;65949;53.132;17.930;2024-01-30T02:57:46;95.10;;;35.80;;
77016;SDS011;65949;53.132;17.930;2024-01-30T03:00:12;80.60;;;33.50;;
77016;SDS011;65949;53.132;17.930;2024-01-30T03:02:40;92.80;;;36.60;;
77016;SDS011;65949;53.132;17.930;2024-01-30T03:05:07;76.90;;;31.20;;
77016;SDS011;65949;53.132;17.930;2024-01-30T03:07:34;79.40;;;31.30;;
77016;SDS011;65949;53.132;17.930;2024-01-30T03:10:01;81.30;;;32.50;;
77016;SDS011;65949;53.132;17.930;2024-01-30T03:12:28;99.00;;;39.00;;
77016;SDS011;65949;53.132;17.930;2024-01-30T03:14:55;97.80;;;36.40;;
77016;SDS011;65949;53.132;17.930;2024-01-30T03:17:21;82.50;;;32.70;;
77016;SDS011;65949;53.132;17.930;2024-01-30T03:19:48;74.00;;;30.90;;
77016;SDS011;65949;53.132;17.930;2024-01-30T03:22:14;81.60;;;30.40;;
77016;SDS011;65949;53.132;17.930;2024-01-30T03:24:41;81.00;;;32.20;;
77016;SDS011;65949;53.132;17.930;2024-01-30T03:27:08;79.00;;;30.60;;
77016;SDS011;65949;53.132;17.930;2024-01-30T03:29:35;80.20;;;30.90;;
77016;SDS011;65949;53.132;17.930;2024-01-30T03:32:01;76.70;;;30.70;;
77016;SDS011;65949;53.132;17.930;2024-01-30T03:34:30;89.10;;;35.20;;
77016;SDS011;65949;53.132;17.930;2024-01-30T03:36:56;82.70;;;33.20;;
77016;SDS011;65949;53.132;17.930;2024-01-30T03:39:23;94.30;;;37.40;;
77016;SDS011;65949;53.132;17.930;2024-01-30T03:41:50;83.20;;;33.80;;
77016;SDS011;65949;53.132;17.930;2024-01-30T03:44:16;80.80;;;33.10;;
77016;SDS011;65949;53.132;17.930;2024-01-30T03:46:43;81.90;;;32.10;;
77016;SDS011;65949;53.132;17.930;2024-01-30T03:49:09;90.10;;;36.80;;
77016;SDS011;65949;53.132;17.930;2024-01-30T03:51:36;91.70;;;37.90;;
77016;SDS011;65949;53.132;17.930;2024-01-30T03:54:03;93.00;;;38.20;;
77016;SDS011;65949;53.132;17.930;2024-01-30T03:56:29;89.80;;;33.10;;
77016;SDS011;65949;53.132;17.930;2024-01-30T03:58:56;87.10;;;34.30;;
77016;SDS011;65949;53.132;17.930;2024-01-30T04:01:23;82.10;;;33.40;;
77016;SDS011;65949;53.132;17.930;2024-01-30T04:03:49;77.80;;;31.80;;
77016;SDS011;65949;53.132;17.930;2024-01-30T04:06:16;77.40;;;30.30;;
77016;SDS011;65949;53.132;17.930;2024-01-30T04:08:43;79.90;;;33.70;;
77016;SDS011;65949;53.132;17.930;2024-01-30T04:11:09;81.00;;;33.30;;
77016;SDS011;65949;53.132;17.930;2024-01-30T04:13:36;77.10;;;30.50;;
77016;SDS011;65949;53.132;17.930;2024-01-30T04:16:02;80.40;;;32.30;;
77016;SDS011;65949;53.132;17.930;2024-01-30T04:18:29;89.60;;;37.10;;
77016;SDS011;65949;53.132;17.930;2024-01-30T04:20:56;93.70;;;38.30;;
77016;SDS011;65949;53.132;17.930;2024-01-30T04:23:23;89.80;;;38.60;;
77016;SDS011;65949;53.132;17.930;2024-01-30T04:25:49;94.30;;;38.00;;
77016;SDS011;65949;53.132;17.930;2024-01-30T04:28:16;89.20;;;37.20;;
77016;SDS011;65949;53.132;17.930;2024-01-30T04:30:42;80.40;;;33.70;;
77016;SDS011;65949;53.132;17.930;2024-01-30T04:33:10;92.90;;;37.00;;
77016;SDS011;65949;53.132;17.930;2024-01-30T04:35:37;91.20;;;37.50;;
77016;SDS011;65949;53.132;17.930;2024-01-30T04:38:03;83.90;;;36.00;;
77016;SDS011;65949;53.132;17.930;2024-01-30T04:40:30;91.60;;;39.00;;
77016;SDS011;65949;53.132;17.930;2024-01-30T04:42:56;90.50;;;37.60;;
77016;SDS011;65949;53.132;17.930;2024-01-30T04:45:23;77.50;;;33.20;;
77016;SDS011;65949;53.132;17.930;2024-01-30T04:47:51;75.40;;;32.20;;
77016;SDS011;65949;53.132;17.930;2024-01-30T04:50:17;72.90;;;30.50;;
77016;SDS011;65949;53.132;17.930;2024-01-30T04:52:45;78.40;;;32.70;;
77016;SDS011;65949;53.132;17.930;2024-01-30T04:55:12;77.40;;;31.30;;
77016;SDS011;65949;53.132;17.930;2024-01-30T04:57:38;75.80;;;30.20;;
77016;SDS011;65949;53.132;17.930;2024-01-30T05:00:05;77.10;;;30.20;;
77016;SDS011;65949;53.132;17.930;2024-01-30T05:02:33;80.20;;;32.80;;
77016;SDS011;65949;53.132;17.930;2024-01-30T05:04:59;89.60;;;34.60;;
77016;SDS011;65949;53.132;17.930;2024-01-30T05:07:26;88.10;;;35.50;;
77016;SDS011;65949;53.132;17.930;2024-01-30T05:09:53;92.30;;;35.50;;
77016;SDS011;65949;53.132;17.930;2024-01-30T05:12:20;75.30;;;31.40;;
77016;SDS011;65949;53.132;17.930;2024-01-30T05:14:47;78.50;;;30.80;;
77016;SDS011;65949;53.132;17.930;2024-01-30T05:17:13;76.70;;;32.00;;
77016;SDS011;65949;53.132;17.930;2024-01-30T05:19:40;81.60;;;32.70;;
77016;SDS011;65949;53.132;17.930;2024-01-30T05:22:07;89.30;;;32.60;;
77016;SDS011;65949;53.132;17.930;2024-01-30T05:24:33;86.60;;;31.50;;
77016;SDS011;65949;53.132;17.930;2024-01-30T05:27:00;76.60;;;30.10;;
77016;SDS011;65949;53.132;17.930;2024-01-30T05:29:27;91.80;;;34.10;;
77016;SDS011;65949;53.132;17.930;2024-01-30T05:31:53;93.90;;;34.10;;
77016;SDS011;65949;53.132;17.930;2024-01-30T05:34:20;83.80;;;32.50;;
77016;SDS011;65949;53.132;17.930;2024-01-30T05:36:46;83.10;;;32.70;;
77016;SDS011;65949;53.132;17.930;2024-01-30T05:39:13;82.70;;;31.90;;
77016;SDS011;65949;53.132;17.930;2024-01-30T05:41:40;75.20;;;30.40;;
77016;SDS011;65949;53.132;17.930;2024-01-30T05:44:06;89.10;;;33.10;;
77016;SDS011;65949;53.132;17.930;2024-01-30T05:46:33;86.00;;;31.80;;
77016;SDS011;65949;53.132;17.930;2024-01-30T05:49:00;94.70;;;34.80;;
77016;SDS011;65949;53.132;17.930;2024-01-30T05:51:26;91.90;;;34.60;;
77016;SDS011;65949;53.132;17.930;2024-01-30T05:53:54;85.80;;;33.00;;
77016;SDS011;65949;53.132;17.930;2024-01-30T05:56:21;80.20;;;29.90;;
77016;SDS011;65949;53.132;17.930;2024-01-30T05:58:47;82.70;;;29.80;;
77016;SDS011;65949;53.132;17.930;2024-01-30T06:01:16;83.60;;;33.00;;
77016;SDS011;65949;53.132;17.930;2024-01-30T06:03:43;86.00;;;33.30;;
77016;SDS011;65949;53.132;17.930;2024-01-30T06:06:09;97.80;;;35.80;;
77016;SDS011;65949;53.132;17.930;2024-01-30T06:08:36;125.00;;;39.70;;
77016;SDS011;65949;53.132;17.930;2024-01-30T06:11:03;181.00;;;53.10;;
77016;SDS011;65949;53.132;17.930;2024-01-30T06:13:29;160.70;;;46.90;;
77016;SDS011;65949;53.132;17.930;2024-01-30T06:15:58;149.90;;;44.60;;
77016;SDS011;65949;53.132;17.930;2024-01-30T06:18:24;145.60;;;46.30;;
77016;SDS011;65949;53.132;17.930;2024-01-30T06:20:53;143.10;;;45.70;;
77016;SDS011;65949;53.132;17.930;2024-01-30T06:23:20;129.70;;;40.90;;
77016;SDS011;65949;53.132;17.930;2024-01-30T06:25:46;127.40;;;41.10;;
77016;SDS011;65949;53.132;17.930;2024-01-30T06:28:13;133.60;;;42.10;;
77016;SDS011;65949;53.132;17.930;2024-01-30T06:30:40;136.30;;;43.10;;
77016;SDS011;65949;53.132;17.930;2024-01-30T06:33:06;118.20;;;39.90;;
77016;SDS011;65949;53.132;17.930;2024-01-30T06:35:33;107.20;;;36.40;;
77016;SDS011;65949;53.132;17.930;2024-01-30T06:38:01;100.40;;;36.70;;
77016;SDS011;65949;53.132;17.930;2024-01-30T06:40:28;110.80;;;38.90;;
77016;SDS011;65949;53.132;17.930;2024-01-30T06:42:54;97.90;;;37.00;;
77016;SDS011;65949;53.132;17.930;2024-01-30T06:45:21;95.50;;;35.70;;
77016;SDS011;65949;53.132;17.930;2024-01-30T06:47:47;110.00;;;37.80;;
77016;SDS011;65949;53.132;17.930;2024-01-30T06:50:14;113.50;;;38.90;;
77016;SDS011;65949;53.132;17.930;2024-01-30T06:52:40;107.30;;;38.40;;
77016;SDS011;65949;53.132;17.930;2024-01-30T06:55:08;95.70;;;38.00;;
77016;SDS011;65949;53.132;17.930;2024-01-30T06:57:35;83.20;;;31.90;;
77016;SDS011;65949;53.132;17.930;2024-01-30T07:00:02;78.10;;;31.20;;
77016;SDS011;65949;53.132;17.930;2024-01-30T07:02:29;82.00;;;31.70;;
77016;SDS011;65949;53.132;17.930;2024-01-30T07:04:55;67.30;;;26.90;;
77016;SDS011;65949;53.132;17.930;2024-01-30T07:07:22;64.40;;;26.80;;
77016;SDS011;65949;53.132;17.930;2024-01-30T07:09:48;70.90;;;29.90;;
77016;SDS011;65949;53.132;17.930;2024-01-30T07:12:18;85.20;;;35.20;;
77016;SDS011;65949;53.132;17.930;2024-01-30T07:14:45;72.90;;;32.70;;
77016;SDS011;65949;53.132;17.930;2024-01-30T07:17:12;84.80;;;39.10;;
77016;SDS011;65949;53.132;17.930;2024-01-30T07:19:38;73.70;;;30.50;;
77016;SDS011;65949;53.132;17.930;2024-01-30T07:22:05;92.30;;;37.60;;
77016;SDS011;65949;53.132;17.930;2024-01-30T07:24:32;85.50;;;34.00;;
77016;SDS011;65949;53.132;17.930;2024-01-30T07:26:58;79.50;;;29.30;;
77016;SDS011;65949;53.132;17.930;2024-01-30T07:29:25;71.00;;;28.10;;
77016;SDS011;65949;53.132;17.930;2024-01-30T07:31:52;75.30;;;29.30;;
77016;SDS011;65949;53.132;17.930;2024-01-30T07:34:19;68.50;;;29.10;;
77016;SDS011;65949;53.132;17.930;2024-01-30T07:36:45;68.20;;;27.10;;
77016;SDS011;65949;53.132;17.930;2024-01-30T07:39:13;65.40;;;27.60;;
77016;SDS011;65949;53.132;17.930;2024-01-30T07:41:39;69.60;;;27.40;;
77016;SDS011;65949;53.132;17.930;2024-01-30T07:44:06;68.70;;;28.70;;
77016;SDS011;65949;53.132;17.930;2024-01-30T07:46:33;58.50;;;27.30;;
77016;SDS011;65949;53.132;17.930;2024-01-30T07:49:01;63.30;;;26.10;;
77016;SDS011;65949;53.132;17.930;2024-01-30T07:51:28;63.10;;;26.50;;
77016;SDS011;65949;53.132;17.930;2024-01-30T07:53:55;58.30;;;24.60;;
77016;SDS011;65949;53.132;17.930;2024-01-30T07:56:23;67.10;;;26.50;;
77016;SDS011;65949;53.132;17.930;2024-01-30T07:58:50;61.90;;;24.50;;
77016;SDS011;65949;53.132;17.930;2024-01-30T08:01:17;48.10;;;20.50;;
77016;SDS011;65949;53.132;17.930;2024-01-30T08:03:43;37.50;;;16.50;;
77016;SDS011;65949;53.132;17.930;2024-01-30T08:06:10;42.60;;;17.60;;
77016;SDS011;65949;53.132;17.930;2024-01-30T08:08:36;34.60;;;16.10;;
77016;SDS011;65949;53.132;17.930;2024-01-30T08:11:04;52.00;;;20.30;;
77016;SDS011;65949;53.132;17.930;2024-01-30T08:13:30;36.50;;;16.50;;
77016;SDS011;65949;53.132;17.930;2024-01-30T08:15:57;33.80;;;15.00;;
77016;SDS011;65949;53.132;17.930;2024-01-30T08:18:24;31.70;;;13.50;;
77016;SDS011;65949;53.132;17.930;2024-01-30T08:20:50;31.90;;;14.00;;
77016;SDS011;65949;53.132;17.930;2024-01-30T08:23:17;37.80;;;15.40;;
77016;SDS011;65949;53.132;17.930;2024-01-30T08:25:43;30.30;;;13.60;;
77016;SDS011;65949;53.132;17.930;2024-01-30T08:28:10;30.90;;;14.20;;
77016;SDS011;65949;53.132;17.930;2024-01-30T08:30:37;33.30;;;14.20;;
77016;SDS011;65949;53.132;17.930;2024-01-30T08:33:05;34.90;;;14.80;;
77016;SDS011;65949;53.132;17.930;2024-01-30T08:35:32;30.30;;;14.30;;
77016;SDS011;65949;53.132;17.930;2024-01-30T08:37:59;28.00;;;13.00;;
77016;SDS011;65949;53.132;17.930;2024-01-30T08:40:26;27.00;;;12.60;;
77016;SDS011;65949;53.132;17.930;2024-01-30T08:42:53;28.90;;;13.30;;
77016;SDS011;65949;53.132;17.930;2024-01-30T08:45:20;24.20;;;10.40;;
77016;SDS011;65949;53.132;17.930;2024-01-30T08:47:47;28.20;;;12.90;;
77016;SDS011;65949;53.132;17.930;2024-01-30T08:50:13;29.80;;;12.50;;
77016;SDS011;65949;53.132;17.930;2024-01-30T08:52:40;29.20;;;12.80;;
77016;SDS011;65949;53.132;17.930;2024-01-30T08:55:07;27.90;;;12.10;;
77016;SDS011;65949;53.132;17.930;2024-01-30T08:57:33;31.50;;;14.20;;
77016;SDS011;65949;53.132;17.930;2024-01-30T09:00:00;33.50;;;14.00;;
77016;SDS011;65949;53.132;17.930;2024-01-30T09:02:30;37.80;;;13.90;;
77016;SDS011;65949;53.132;17.930;2024-01-30T09:04:57;42.50;;;14.70;;
77016;SDS011;65949;53.132;17.930;2024-01-30T09:07:24;36.60;;;14.80;;
77016;SDS011;65949;53.132;17.930;2024-01-30T09:09:50;27.80;;;12.60;;
77016;SDS011;65949;53.132;17.930;2024-01-30T09:12:17;29.00;;;13.10;;
77016;SDS011;65949;53.132;17.930;2024-01-30T09:14:43;27.50;;;11.90;;
77016;SDS011;65949;53.132;17.930;2024-01-30T09:17:10;23.80;;;11.60;;
77016;SDS011;65949;53.132;17.930;2024-01-30T09:19:37;24.80;;;11.50;;
77016;SDS011;65949;53.132;17.930;2024-01-30T09:22:04;23.40;;;10.80;;
77016;SDS011;65949;53.132;17.930;2024-01-30T09:24:30;28.60;;;11.30;;
77016;SDS011;65949;53.132;17.930;2024-01-30T09:26:57;25.30;;;10.40;;
77016;SDS011;65949;53.132;17.930;2024-01-30T09:29:23;39.60;;;14.30;;
77016;SDS011;65949;53.132;17.930;2024-01-30T09:31:50;27.60;;;11.40;;
77016;SDS011;65949;53.132;17.930;2024-01-30T09:34:16;32.40;;;11.50;;
77016;SDS011;65949;53.132;17.930;2024-01-30T09:36:43;43.90;;;15.50;;
77016;SDS011;65949;53.132;17.930;2024-01-30T09:39:09;35.80;;;14.30;;
77016;SDS011;65949;53.132;17.930;2024-01-30T09:41:39;25.80;;;11.50;;
77016;SDS011;65949;53.132;17.930;2024-01-30T09:44:30;26.40;;;11.10;;
77016;SDS011;65949;53.132;17.930;2024-01-30T09:46:57;23.10;;;11.10;;
77016;SDS011;65949;53.132;17.930;2024-01-30T09:49:31;22.60;;;9.90;;
77016;SDS011;65949;53.132;17.930;2024-01-30T09:51:59;25.20;;;10.30;;
77016;SDS011;65949;53.132;17.930;2024-01-30T09:54:28;23.30;;;9.90;;
77016;SDS011;65949;53.132;17.930;2024-01-30T09:56:58;20.80;;;9.60;;
77016;SDS011;65949;53.132;17.930;2024-01-30T09:59:25;24.20;;;10.70;;
77016;SDS011;65949;53.132;17.930;2024-01-30T10:01:51;20.40;;;9.20;;
77016;SDS011;65949;53.132;17.930;2024-01-30T10:04:19;23.60;;;10.80;;
77016;SDS011;65949;53.132;17.930;2024-01-30T10:06:46;23.80;;;10.50;;
77016;SDS011;65949;53.132;17.930;2024-01-30T10:09:13;22.70;;;11.80;;
77016;SDS011;65949;53.132;17.930;2024-01-30T10:11:40;25.70;;;10.90;;
77016;SDS011;65949;53.132;17.930;2024-01-30T10:14:07;21.80;;;10.80;;
77016;SDS011;65949;53.132;17.930;2024-01-30T10:16:34;22.30;;;9.50;;
77016;SDS011;65949;53.132;17.930;2024-01-30T10:19:01;23.10;;;10.20;;
77016;SDS011;65949;53.132;17.930;2024-01-30T10:21:32;23.50;;;10.80;;
77016;SDS011;65949;53.132;17.930;2024-01-30T10:23:58;23.20;;;9.80;;
77016;SDS011;65949;53.132;17.930;2024-01-30T10:26:25;36.00;;;14.80;;
77016;SDS011;65949;53.132;17.930;2024-01-30T10:28:51;30.20;;;13.20;;
77016;SDS011;65949;53.132;17.930;2024-01-30T10:31:18;31.00;;;12.50;;
77016;SDS011;65949;53.132;17.930;2024-01-30T10:33:45;42.30;;;15.60;;
77016;SDS011;65949;53.132;17.930;2024-01-30T10:36:13;30.70;;;11.80;;
77016;SDS011;65949;53.132;17.930;2024-01-30T10:38:42;24.40;;;10.10;;
77016;SDS011;65949;53.132;17.930;2024-01-30T10:41:10;21.10;;;8.50;;
77016;SDS011;65949;53.132;17.930;2024-01-30T10:43:40;21.90;;;9.40;;
77016;SDS011;65949;53.132;17.930;2024-01-30T10:46:16;17.40;;;8.20;;
77016;SDS011;65949;53.132;17.930;2024-01-30T10:48:58;24.30;;;9.00;;
77016;SDS011;65949;53.132;17.930;2024-01-30T10:51:29;20.30;;;8.50;;
77016;SDS011;65949;53.132;17.930;2024-01-30T10:53:57;20.80;;;8.70;;
77016;SDS011;65949;53.132;17.930;2024-01-30T10:56:24;19.10;;;8.60;;
77016;SDS011;65949;53.132;17.930;2024-01-30T10:58:52;20.90;;;8.90;;
77016;SDS011;65949;53.132;17.930;2024-01-30T11:01:19;21.70;;;9.40;;
77016;SDS011;65949;53.132;17.930;2024-01-30T11:03:50;22.20;;;9.30;;
77016;SDS011;65949;53.132;17.930;2024-01-30T11:06:17;19.70;;;8.90;;
77016;SDS011;65949;53.132;17.930;2024-01-30T11:08:45;20.80;;;8.90;;
77016;SDS011;65949;53.132;17.930;2024-01-30T11:11:12;20.60;;;8.50;;
77016;SDS011;65949;53.132;17.930;2024-01-30T11:13:38;22.60;;;9.40;;
77016;SDS011;65949;53.132;17.930;2024-01-30T11:16:06;20.10;;;8.50;;
77016;SDS011;65949;53.132;17.930;2024-01-30T11:18:35;19.70;;;8.70;;
77016;SDS011;65949;53.132;17.930;2024-01-30T11:21:04;20.30;;;9.60;;
77016;SDS011;65949;53.132;17.930;2024-01-30T11:23:33;23.20;;;9.80;;
77016;SDS011;65949;53.132;17.930;2024-01-30T11:26:01;19.40;;;9.40;;
77016;SDS011;65949;53.132;17.930;2024-01-30T11:28:32;23.70;;;10.40;;
77016;SDS011;65949;53.132;17.930;2024-01-30T11:31:04;21.10;;;10.10;;
77016;SDS011;65949;53.132;17.930;2024-01-30T11:33:33;22.20;;;9.70;;
77016;SDS011;65949;53.132;17.930;2024-01-30T11:36:00;20.40;;;9.30;;
77016;SDS011;65949;53.132;17.930;2024-01-30T11:38:33;20.80;;;9.40;;
77016;SDS011;65949;53.132;17.930;2024-01-30T11:41:00;19.80;;;9.10;;
77016;SDS011;65949;53.132;17.930;2024-01-30T11:43:27;20.00;;;9.00;;
77016;SDS011;65949;53.132;17.930;2024-01-30T11:45:54;19.30;;;8.30;;
77016;SDS011;65949;53.132;17.930;2024-01-30T11:48:21;20.20;;;8.80;;
77016;SDS011;65949;53.132;17.930;2024-01-30T11:50:48;19.90;;;9.10;;
77016;SDS011;65949;53.132;17.930;2024-01-30T11:53:15;21.30;;;10.00;;
77016;SDS011;65949;53.132;17.930;2024-01-30T11:55:42;23.50;;;10.20;;
77016;SDS011;65949;53.132;17.930;2024-01-30T11:58:15;19.90;;;9.40;;
77016;SDS011;65949;53.132;17.930;2024-01-30T12:00:42;23.20;;;10.00;;
77016;SDS011;65949;53.132;17.930;2024-01-30T12:03:09;19.00;;;8.50;;
77016;SDS011;65949;53.132;17.930;2024-01-30T12:05:37;21.10;;;9.50;;
77016;SDS011;65949;53.132;17.930;2024-01-30T12:08:14;18.00;;;9.00;;
77016;SDS011;65949;53.132;17.930;2024-01-30T12:10:41;20.60;;;9.30;;
77016;SDS011;65949;53.132;17.930;2024-01-30T12:13:08;19.50;;;9.20;;
77016;SDS011;65949;53.132;17.930;2024-01-30T12:15:35;20.20;;;9.50;;
77016;SDS011;65949;53.132;17.930;2024-01-30T12:18:05;21.40;;;9.80;;
77016;SDS011;65949;53.132;17.930;2024-01-30T12:20:33;18.50;;;8.90;;
77016;SDS011;65949;53.132;17.930;2024-01-30T12:23:00;20.80;;;8.80;;
77016;SDS011;65949;53.132;17.930;2024-01-30T12:25:26;20.10;;;9.30;;
77016;SDS011;65949;53.132;17.930;2024-01-30T12:27:53;18.90;;;8.80;;
77016;SDS011;65949;53.132;17.930;2024-01-30T12:30:20;18.60;;;8.60;;
77016;SDS011;65949;53.132;17.930;2024-01-30T12:32:49;18.60;;;8.70;;
77016;SDS011;65949;53.132;17.930;2024-01-30T12:35:17;19.00;;;8.50;;
77016;SDS011;65949;53.132;17.930;2024-01-30T12:37:45;19.00;;;9.30;;
77016;SDS011;65949;53.132;17.930;2024-01-30T12:40:14;20.70;;;8.90;;
77016;SDS011;65949;53.132;17.930;2024-01-30T12:42:42;18.20;;;8.40;;
77016;SDS011;65949;53.132;17.930;2024-01-30T12:45:09;21.30;;;9.50;;
77016;SDS011;65949;53.132;17.930;2024-01-30T12:47:36;20.10;;;8.90;;
77016;SDS011;65949;53.132;17.930;2024-01-30T12:50:03;18.90;;;8.10;;
77016;SDS011;65949;53.132;17.930;2024-01-30T12:52:30;24.30;;;9.70;;
77016;SDS011;65949;53.132;17.930;2024-01-30T12:54:57;20.70;;;9.30;;
77016;SDS011;65949;53.132;17.930;2024-01-30T12:57:23;18.80;;;8.50;;
77016;SDS011;65949;53.132;17.930;2024-01-30T12:59:50;21.40;;;9.40;;
77016;SDS011;65949;53.132;17.930;2024-01-30T13:02:17;21.00;;;10.20;;
77016;SDS011;65949;53.132;17.930;2024-01-30T13:04:43;21.40;;;9.60;;
77016;SDS011;65949;53.132;17.930;2024-01-30T13:07:10;18.30;;;8.60;;
77016;SDS011;65949;53.132;17.930;2024-01-30T13:09:37;19.00;;;8.70;;
77016;SDS011;65949;53.132;17.930;2024-01-30T13:12:04;16.30;;;8.30;;
77016;SDS011;65949;53.132;17.930;2024-01-30T13:14:31;20.10;;;8.80;;
77016;SDS011;65949;53.132;17.930;2024-01-30T13:16:58;20.80;;;9.30;;
77016;SDS011;65949;53.132;17.930;2024-01-30T13:19:25;21.90;;;10.10;;
77016;SDS011;65949;53.132;17.930;2024-01-30T13:21:51;20.70;;;9.80;;
77016;SDS011;65949;53.132;17.930;2024-01-30T13:24:18;21.50;;;9.70;;
77016;SDS011;65949;53.132;17.930;2024-01-30T13:26:48;19.50;;;8.90;;
77016;SDS011;65949;53.132;17.930;2024-01-30T13:29:15;16.30;;;6.80;;
77016;SDS011;65949;53.132;17.930;2024-01-30T13:31:42;20.00;;;9.10;;
77016;SDS011;65949;53.132;17.930;2024-01-30T13:34:10;21.30;;;9.70;;
77016;SDS011;65949;53.132;17.930;2024-01-30T13:36:37;22.30;;;10.30;;
77016;SDS011;65949;53.132;17.930;2024-01-30T13:39:04;19.70;;;9.60;;
77016;SDS011;65949;53.132;17.930;2024-01-30T13:41:37;22.20;;;10.10;;
77016;SDS011;65949;53.132;17.930;2024-01-30T13:44:04;23.60;;;10.50;;
77016;SDS011;65949;53.132;17.930;2024-01-30T13:46:30;26.80;;;11.50;;
77016;SDS011;65949;53.132;17.930;2024-01-30T13:48:57;29.80;;;11.40;;
77016;SDS011;65949;53.132;17.930;2024-01-30T13:51:24;23.40;;;9.90;;
77016;SDS011;65949;53.132;17.930;2024-01-30T13:53:51;22.20;;;10.40;;
77016;SDS011;65949;53.132;17.930;2024-01-30T13:56:17;26.10;;;11.50;;
77016;SDS011;65949;53.132;17.930;2024-01-30T13:58:44;20.60;;;9.60;;
77016;SDS011;65949;53.132;17.930;2024-01-30T14:01:11;23.30;;;10.80;;
77016;SDS011;65949;53.132;17.930;2024-01-30T14:03:37;22.20;;;10.40;;
77016;SDS011;65949;53.132;17.930;2024-01-30T14:06:04;26.80;;;11.30;;
77016;SDS011;65949;53.132;17.930;2024-01-30T14:08:31;25.90;;;11.50;;
77016;SDS011;65949;53.132;17.930;2024-01-30T14:10:59;28.60;;;12.80;;